Time;durP1;ratioP1;P1;durP2;ratioP2;P2;SDS_P1;SDS_P2;PMS_P1;PMS_P2;Temp;Humidity;BMP_temperature;BMP_pressure;BME280_temperature;BME280_humidity;BME280_pressure;Samples;Min_cycle;Max_cycle;Signal;HPM_P1;HPM_P2
2022/03/30 00:01:49;;;;;;;1.13;0.20;;;;;;;;;;4214569;28;20044;-33
2022/03/30 00:03:50;;;;;;;0.30;0.15;;;;;;;;;;4213129;28;20620;-33
2022/03/30 00:05:51;;;;;;;0.17;0.10;;;;;;;;;;4214792;28;20132;-33
2022/03/30 00:07:53;;;;;;;0.28;0.10;;;;;;;;;;4214836;28;20044;-33
2022/03/30 00:09:54;;;;;;;0.73;0.20;;;;;;;;;;4214681;28;20047;-33
2022/03/30 00:11:56;;;;;;;1.15;0.30;;;;;;;;;;4214542;28;20347;-33
2022/03/30 00:13:57;;;;;;;0.40;0.20;;;;;;;;;;4214826;28;20055;-33
2022/03/30 00:15:58;;;;;;;0.15;0.10;;;;;;;;;;4214645;28;20109;-34
2022/03/30 00:17:59;;;;;;;0.20;0.13;;;;;;;;;;4214127;28;20181;-34
2022/03/30 00:20:02;;;;;;;1.20;0.20;;;;;;;;;;4214599;28;20044;-33
2022/03/30 00:22:03;;;;;;;0.30;0.10;;;;;;;;;;4214423;28;20070;-33
2022/03/30 00:24:06;;;;;;;0.60;0.30;;;;;;;;;;4214720;28;20105;-33
2022/03/30 00:26:07;;;;;;;0.20;0.20;;;;;;;;;;4214409;28;20044;-33
2022/03/30 00:28:09;;;;;;;0.25;0.20;;;;;;;;;;4214295;28;20109;-36
2022/03/30 00:30:11;;;;;;;0.20;0.20;;;;;;;;;;4214386;28;20040;-33
2022/03/30 00:32:12;;;;;;;0.30;0.10;;;;;;;;;;4213822;28;20495;-33
2022/03/30 00:34:13;;;;;;;0.40;0.17;;;;;;;;;;4214196;28;20206;-33
2022/03/30 00:36:14;;;;;;;0.60;0.10;;;;;;;;;;4214394;28;20097;-34
2022/03/30 00:38:15;;;;;;;0.32;0.10;;;;;;;;;;4214055;28;20198;-34
2022/03/30 00:40:17;;;;;;;0.20;0.15;;;;;;;;;;4214399;28;20154;-34
2022/03/30 00:42:19;;;;;;;0.30;0.10;;;;;;;;;;4213922;28;20056;-34
2022/03/30 00:44:20;;;;;;;0.65;0.30;;;;;;;;;;4213834;28;20442;-34
2022/03/30 00:46:21;;;;;;;0.32;0.10;;;;;;;;;;4214323;28;20051;-34
2022/03/30 00:48:22;;;;;;;0.43;0.10;;;;;;;;;;4213819;28;20638;-34
2022/03/30 00:50:23;;;;;;;0.20;0.10;;;;;;;;;;4214309;28;20086;-34
2022/03/30 00:52:23;;;;;;;0.85;0.10;;;;;;;;;;4213998;28;20101;-34
2022/03/30 00:54:24;;;;;;;0.43;0.10;;;;;;;;;;4214341;28;20082;-34
2022/03/30 00:56:27;;;;;;;0.03;0.03;;;;;;;;;;4214060;28;20096;-34
2022/03/30 00:58:28;;;;;;;0.15;0.10;;;;;;;;;;4213625;28;20097;-34
2022/03/30 01:00:30;;;;;;;0.10;0.00;;;;;;;;;;4212697;28;20044;-34
2022/03/30 01:02:31;;;;;;;0.93;0.20;;;;;;;;;;4213337;28;20109;-34
2022/03/30 01:04:31;;;;;;;0.65;0.20;;;;;;;;;;4213754;28;20051;-34
2022/03/30 01:06:33;;;;;;;0.45;0.20;;;;;;;;;;4213860;28;20043;-34
2022/03/30 01:08:33;;;;;;;0.40;0.10;;;;;;;;;;4213576;28;20679;-34
2022/03/30 01:10:34;;;;;;;0.40;0.20;;;;;;;;;;4213613;28;20087;-34
2022/03/30 01:12:38;;;;;;;0.10;0.10;;;;;;;;;;4213223;28;20056;-34
2022/03/30 01:14:40;;;;;;;0.35;0.28;;;;;;;;;;4213440;28;20044;-34
2022/03/30 01:16:41;;;;;;;0.98;0.30;;;;;;;;;;4213601;28;20040;-34
2022/03/30 01:18:42;;;;;;;0.52;0.20;;;;;;;;;;4213057;28;20098;-34
2022/03/30 01:20:47;;;;;;;0.25;0.10;;;;;;;;;;4213510;28;20551;-34
2022/03/30 01:22:49;;;;;;;0.17;0.10;;;;;;;;;;4213427;28;20143;-34
2022/03/30 01:24:50;;;;;;;0.50;0.10;;;;;;;;;;4213498;28;20436;-34
2022/03/30 01:26:51;;;;;;;0.10;0.10;;;;;;;;;;4213587;28;20192;-34
2022/03/30 01:28:52;;;;;;;0.10;0.10;;;;;;;;;;4213212;28;20502;-34
2022/03/30 01:33:13;;;;;;;0.70;0.10;;;;;;;;;;4212879;28;20044;-34
2022/03/30 01:35:14;;;;;;;0.28;0.20;;;;;;;;;;4213577;28;20043;-34
2022/03/30 01:37:15;;;;;;;0.30;0.10;;;;;;;;;;4211697;28;20047;-34
2022/03/30 01:39:16;;;;;;;0.60;0.13;;;;;;;;;;4211865;28;20051;-34
2022/03/30 01:41:17;;;;;;;0.20;0.20;;;;;;;;;;4211790;28;20157;-34
2022/03/30 01:43:18;;;;;;;0.35;0.15;;;;;;;;;;4213140;28;20109;-34
2022/03/30 01:45:19;;;;;;;3.03;0.43;;;;;;;;;;4213231;28;20058;-34
2022/03/30 01:47:20;;;;;;;0.30;0.30;;;;;;;;;;4212959;28;20101;-34
2022/03/30 01:49:21;;;;;;;0.60;0.13;;;;;;;;;;4212047;28;20089;-34
2022/03/30 01:51:22;;;;;;;0.50;0.15;;;;;;;;;;4213136;28;20101;-34
2022/03/30 01:53:23;;;;;;;0.40;0.10;;;;;;;;;;4212152;28;20481;-34
2022/03/30 01:55:24;;;;;;;0.30;0.10;;;;;;;;;;4212886;28;20356;-34
2022/03/30 01:57:25;;;;;;;0.50;0.30;;;;;;;;;;4212598;28;20090;-34
2022/03/30 01:59:26;;;;;;;0.80;0.13;;;;;;;;;;4213217;28;20059;-34
2022/03/30 02:01:26;;;;;;;0.52;0.10;;;;;;;;;;4211824;28;20071;-34
2022/03/30 02:03:28;;;;;;;0.50;0.10;;;;;;;;;;4212655;28;20358;-34
2022/03/30 02:05:31;;;;;;;0.10;0.10;;;;;;;;;;4212857;28;20040;-34
2022/03/30 02:07:32;;;;;;;0.20;0.10;;;;;;;;;;4212748;28;20044;-34
2022/03/30 02:09:33;;;;;;;0.10;0.08;;;;;;;;;;4212771;28;20151;-34
2022/03/30 02:11:34;;;;;;;0.60;0.30;;;;;;;;;;4212316;28;20052;-34
2022/03/30 02:13:35;;;;;;;0.20;0.20;;;;;;;;;;4212568;28;20380;-34
2022/03/30 02:15:36;;;;;;;0.20;0.10;;;;;;;;;;4211339;28;20166;-34
2022/03/30 02:17:37;;;;;;;0.20;0.20;;;;;;;;;;4212172;28;20094;-34
2022/03/30 02:19:39;;;;;;;0.50;0.10;;;;;;;;;;4212712;28;20044;-34
2022/03/30 02:21:40;;;;;;;1.08;0.25;;;;;;;;;;4212251;28;20361;-34
2022/03/30 02:23:42;;;;;;;0.88;0.20;;;;;;;;;;4212407;28;20101;-34
2022/03/30 02:25:43;;;;;;;0.40;0.10;;;;;;;;;;4212340;28;20085;-34
2022/03/30 02:27:44;;;;;;;0.50;0.20;;;;;;;;;;4212413;28;20143;-34
2022/03/30 02:29:49;;;;;;;1.02;0.20;;;;;;;;;;4212571;28;20096;-34
2022/03/30 02:31:50;;;;;;;0.17;0.17;;;;;;;;;;4210884;28;20044;-34
2022/03/30 02:33:51;;;;;;;0.08;0.08;;;;;;;;;;4210938;28;20104;-34
2022/03/30 02:35:52;;;;;;;0.50;0.10;;;;;;;;;;4212447;28;20068;-34
2022/03/30 02:37:55;;;;;;;0.32;0.28;;;;;;;;;;4212225;28;20052;-35
2022/03/30 02:39:56;;;;;;;0.38;0.20;;;;;;;;;;4212172;28;20411;-34
2022/03/30 02:41:58;;;;;;;0.13;0.10;;;;;;;;;;4212158;28;20044;-35
2022/03/30 02:43:59;;;;;;;0.43;0.20;;;;;;;;;;4212262;28;20121;-34
2022/03/30 02:46:00;;;;;;;1.75;0.20;;;;;;;;;;4212556;28;20286;-34
2022/03/30 02:48:19;;;;;;;0.55;0.10;;;;;;;;;;4211721;28;20098;-34
2022/03/30 02:50:20;;;;;;;0.10;0.10;;;;;;;;;;4212417;28;20093;-34
2022/03/30 02:52:20;;;;;;;0.80;0.10;;;;;;;;;;4211973;28;20044;-34
2022/03/30 02:54:24;;;;;;;0.10;0.10;;;;;;;;;;4212086;28;20093;-34
2022/03/30 02:56:25;;;;;;;0.40;0.10;;;;;;;;;;4212226;28;20044;-34
2022/03/30 02:58:27;;;;;;;0.40;0.20;;;;;;;;;;4212380;28;20105;-34
2022/03/30 03:00:28;;;;;;;0.35;0.17;;;;;;;;;;4212137;28;20071;-34
2022/03/30 03:02:29;;;;;;;0.10;0.00;;;;;;;;;;4211571;28;20127;-34
2022/03/30 03:04:30;;;;;;;0.10;0.10;;;;;;;;;;4212069;28;20087;-34
2022/03/30 03:06:31;;;;;;;0.38;0.10;;;;;;;;;;4211827;28;20044;-34
2022/03/30 03:08:32;;;;;;;0.10;0.10;;;;;;;;;;4211917;28;20044;-34
2022/03/30 03:10:35;;;;;;;0.20;0.10;;;;;;;;;;4212323;28;20083;-41
2022/03/30 03:12:36;;;;;;;0.15;0.10;;;;;;;;;;4211835;28;20125;-34
2022/03/30 03:14:37;;;;;;;0.63;0.43;;;;;;;;;;4211992;28;20516;-34
2022/03/30 03:16:38;;;;;;;1.00;0.20;;;;;;;;;;4211963;28;20546;-34
2022/03/30 03:18:39;;;;;;;0.30;0.05;;;;;;;;;;4211645;28;20048;-34
2022/03/30 03:20:41;;;;;;;0.15;0.10;;;;;;;;;;4211936;28;20121;-34
2022/03/30 03:22:42;;;;;;;0.45;0.30;;;;;;;;;;4211699;28;20065;-35
2022/03/30 03:24:43;;;;;;;0.20;0.20;;;;;;;;;;4211932;28;20445;-34
2022/03/30 03:26:45;;;;;;;0.10;0.10;;;;;;;;;;4212226;28;20044;-34
2022/03/30 03:28:45;;;;;;;0.95;0.10;;;;;;;;;;4212105;28;20482;-34
2022/03/30 03:30:47;;;;;;;0.10;0.10;;;;;;;;;;4212110;28;20048;-34
2022/03/30 03:32:49;;;;;;;0.20;0.10;;;;;;;;;;4211496;28;20059;-33
2022/03/30 03:34:50;;;;;;;0.93;0.20;;;;;;;;;;4211751;28;20428;-34
2022/03/30 03:36:51;;;;;;;0.50;0.20;;;;;;;;;;4211875;28;20097;-34
2022/03/30 03:38:52;;;;;;;0.30;0.13;;;;;;;;;;4211998;28;20047;-34
2022/03/30 03:40:53;;;;;;;0.20;0.10;;;;;;;;;;4211789;28;20100;-34
2022/03/30 03:42:54;;;;;;;0.20;0.10;;;;;;;;;;4212130;28;20094;-34
2022/03/30 03:44:55;;;;;;;0.38;0.20;;;;;;;;;;4212019;28;20048;-34
2022/03/30 03:46:56;;;;;;;0.20;0.20;;;;;;;;;;4211291;28;20544;-34
2022/03/30 03:48:57;;;;;;;0.10;0.10;;;;;;;;;;4211774;28;20060;-34
2022/03/30 03:50:58;;;;;;;0.45;0.10;;;;;;;;;;4211774;28;20079;-34
2022/03/30 03:53:01;;;;;;;0.10;0.10;;;;;;;;;;4211428;28;20333;-34
2022/03/30 03:55:03;;;;;;;0.13;0.10;;;;;;;;;;4211514;28;20455;-34
2022/03/30 03:57:04;;;;;;;0.10;0.10;;;;;;;;;;4211707;28;20333;-34
2022/03/30 03:59:05;;;;;;;0.43;0.10;;;;;;;;;;4211707;28;20540;-34
2022/03/30 04:01:06;;;;;;;0.40;0.10;;;;;;;;;;4211686;28;20052;-34
2022/03/30 04:03:07;;;;;;;0.30;0.13;;;;;;;;;;4211551;28;20136;-34
2022/03/30 04:05:09;;;;;;;0.17;0.10;;;;;;;;;;4211860;28;20131;-34
2022/03/30 04:07:10;;;;;;;0.08;0.05;;;;;;;;;;4211702;28;20108;-34
2022/03/30 04:09:11;;;;;;;0.50;0.20;;;;;;;;;;4211849;28;20048;-34
2022/03/30 04:11:13;;;;;;;0.68;0.20;;;;;;;;;;4211583;28;20113;-33
2022/03/30 04:13:14;;;;;;;0.13;0.10;;;;;;;;;;4211518;28;20433;-33
2022/03/30 04:15:15;;;;;;;0.20;0.20;;;;;;;;;;4211559;28;20048;-34
2022/03/30 04:17:17;;;;;;;0.50;0.30;;;;;;;;;;4213782;28;20406;-34
2022/03/30 04:19:18;;;;;;;0.10;0.10;;;;;;;;;;4214574;28;20432;-34
2022/03/30 04:21:19;;;;;;;0.85;0.38;;;;;;;;;;4214232;28;20048;-32
2022/03/30 04:23:20;;;;;;;0.30;0.10;;;;;;;;;;4214655;28;20102;-33
2022/03/30 04:25:21;;;;;;;0.52;0.20;;;;;;;;;;4214225;28;20131;-33
2022/03/30 04:27:22;;;;;;;0.13;0.10;;;;;;;;;;4214287;28;20178;-33
2022/03/30 04:29:22;;;;;;;0.68;0.10;;;;;;;;;;4214658;28;20097;-33
2022/03/30 04:31:23;;;;;;;0.38;0.10;;;;;;;;;;4214537;28;20581;-33
2022/03/30 04:33:24;;;;;;;0.13;0.13;;;;;;;;;;4214084;28;20512;-33
2022/03/30 04:35:25;;;;;;;0.10;0.10;;;;;;;;;;4214250;28;20048;-33
2022/03/30 04:37:27;;;;;;;0.20;0.20;;;;;;;;;;4214193;28;20047;-33
2022/03/30 04:39:27;;;;;;;0.20;0.10;;;;;;;;;;4214410;28;20135;-33
2022/03/30 04:41:28;;;;;;;0.13;0.10;;;;;;;;;;4214400;28;20134;-33
2022/03/30 04:43:29;;;;;;;0.20;0.10;;;;;;;;;;4214215;28;20044;-33
2022/03/30 04:45:30;;;;;;;0.10;0.10;;;;;;;;;;4214177;28;20541;-33
2022/03/30 04:47:32;;;;;;;0.30;0.10;;;;;;;;;;4213364;28;20087;-33
2022/03/30 04:49:33;;;;;;;0.30;0.20;;;;;;;;;;4213961;28;20044;-33
2022/03/30 04:51:34;;;;;;;0.68;0.47;;;;;;;;;;4213773;28;20091;-33
2022/03/30 04:53:35;;;;;;;0.95;0.10;;;;;;;;;;4214144;28;20058;-33
2022/03/30 04:55:36;;;;;;;0.65;0.20;;;;;;;;;;4214074;28;20101;-33
2022/03/30 04:57:38;;;;;;;0.20;0.10;;;;;;;;;;4213813;28;20313;-33
2022/03/30 04:59:38;;;;;;;0.30;0.17;;;;;;;;;;4195617;28;20044;-34
2022/03/30 05:01:39;;;;;;;0.30;0.20;;;;;;;;;;4209744;28;20087;-33
2022/03/30 05:03:41;;;;;;;0.10;0.10;;;;;;;;;;4211584;28;20101;-33
2022/03/30 05:05:42;;;;;;;0.30;0.30;;;;;;;;;;4211496;28;20097;-33
2022/03/30 05:07:43;;;;;;;0.10;0.10;;;;;;;;;;4211706;28;20048;-33
2022/03/30 05:09:44;;;;;;;0.30;0.30;;;;;;;;;;4210455;28;20121;-33
2022/03/30 05:11:45;;;;;;;0.10;0.10;;;;;;;;;;4211473;28;20101;-33
2022/03/30 05:13:46;;;;;;;0.32;0.20;;;;;;;;;;4211427;28;20060;-33
2022/03/30 05:15:47;;;;;;;0.20;0.20;;;;;;;;;;4211409;28;20086;-33
2022/03/30 05:17:48;;;;;;;0.20;0.10;;;;;;;;;;4210962;28;20128;-34
2022/03/30 05:19:49;;;;;;;0.35;0.22;;;;;;;;;;4210164;28;20062;-33
2022/03/30 05:21:50;;;;;;;0.47;0.40;;;;;;;;;;4211621;28;20064;-33
2022/03/30 05:23:52;;;;;;;1.13;0.47;;;;;;;;;;4211465;28;20055;-33
2022/03/30 05:25:52;;;;;;;0.35;0.20;;;;;;;;;;4211316;28;20356;-33
2022/03/30 05:27:55;;;;;;;0.95;0.43;;;;;;;;;;4210253;28;20052;-33
2022/03/30 05:29:55;;;;;;;0.70;0.45;;;;;;;;;;4211420;28;20043;-33
2022/03/30 05:31:56;;;;;;;1.67;0.40;;;;;;;;;;4210852;28;20060;-33
2022/03/30 05:33:57;;;;;;;0.30;0.20;;;;;;;;;;4210954;28;20094;-33
2022/03/30 05:35:58;;;;;;;0.25;0.20;;;;;;;;;;4211288;28;20117;-33
2022/03/30 05:37:59;;;;;;;0.68;0.25;;;;;;;;;;4210751;28;20048;-33
2022/03/30 05:40:00;;;;;;;1.58;0.28;;;;;;;;;;4211340;28;20051;-33
2022/03/30 05:42:01;;;;;;;0.47;0.20;;;;;;;;;;4211272;28;20506;-33
2022/03/30 05:44:03;;;;;;;0.70;0.20;;;;;;;;;;4209794;28;20483;-33
2022/03/30 05:46:04;;;;;;;3.05;0.40;;;;;;;;;;4211593;28;20095;-33
2022/03/30 05:48:04;;;;;;;0.82;0.63;;;;;;;;;;4210172;28;20060;-33
2022/03/30 05:50:07;;;;;;;1.48;1.00;;;;;;;;;;4211398;28;20522;-34
2022/03/30 05:52:08;;;;;;;1.33;0.20;;;;;;;;;;4211248;28;20104;-34
2022/03/30 05:54:09;;;;;;;1.38;0.47;;;;;;;;;;4210803;28;20099;-34
2022/03/30 05:56:10;;;;;;;3.08;0.52;;;;;;;;;;4210807;28;20514;-33
2022/03/30 05:58:12;;;;;;;0.63;0.30;;;;;;;;;;4210719;28;20056;-33
2022/03/30 06:00:13;;;;;;;0.75;0.30;;;;;;;;;;4210587;28;20093;-33
2022/03/30 06:02:17;;;;;;;1.00;0.20;;;;;;;;;;4210224;28;20109;-34
2022/03/30 06:04:18;;;;;;;1.35;0.32;;;;;;;;;;4209231;28;20051;-34
2022/03/30 06:06:19;;;;;;;0.85;0.20;;;;;;;;;;4206009;28;20458;-33
2022/03/30 06:08:20;;;;;;;0.93;0.40;;;;;;;;;;4205219;28;20081;-33
2022/03/30 06:10:21;;;;;;;1.10;0.25;;;;;;;;;;4203944;28;20051;-34
2022/03/30 06:12:24;;;;;;;0.77;0.35;;;;;;;;;;4201190;28;20101;-34
2022/03/30 06:14:25;;;;;;;1.92;0.40;;;;;;;;;;4198300;28;20075;-34
2022/03/30 06:16:27;;;;;;;0.75;0.50;;;;;;;;;;4199604;28;20160;-34
2022/03/30 06:18:28;;;;;;;1.73;0.60;;;;;;;;;;4202926;28;20093;-34
2022/03/30 06:20:29;;;;;;;0.60;0.32;;;;;;;;;;4196682;28;20067;-34
2022/03/30 06:22:32;;;;;;;1.20;0.50;;;;;;;;;;4203644;28;20059;-34
2022/03/30 06:24:34;;;;;;;3.60;0.60;;;;;;;;;;4205979;28;20345;-34
2022/03/30 06:26:36;;;;;;;1.20;0.50;;;;;;;;;;4204231;28;20521;-34
2022/03/30 06:28:37;;;;;;;3.75;0.40;;;;;;;;;;4206460;28;20089;-34
2022/03/30 06:30:38;;;;;;;4.68;0.60;;;;;;;;;;4204560;28;20051;-33
2022/03/30 06:32:39;;;;;;;2.20;0.30;;;;;;;;;;4204316;28;20055;-33
2022/03/30 06:34:40;;;;;;;2.20;0.40;;;;;;;;;;4204340;28;20044;-34
2022/03/30 06:36:41;;;;;;;2.40;0.50;;;;;;;;;;4192770;28;20052;-34
2022/03/30 06:38:43;;;;;;;2.45;0.50;;;;;;;;;;4201625;28;20483;-34
2022/03/30 06:40:46;;;;;;;2.67;1.00;;;;;;;;;;4198492;28;20445;-34
2022/03/30 06:42:48;;;;;;;1.80;0.30;;;;;;;;;;4197504;28;20114;-33
2022/03/30 06:44:49;;;;;;;3.83;0.50;;;;;;;;;;4196769;28;21709;-34
2022/03/30 06:46:50;;;;;;;3.35;0.32;;;;;;;;;;4194677;28;20052;-34
2022/03/30 06:48:51;;;;;;;1.23;0.30;;;;;;;;;;4199507;28;20052;-34
2022/03/30 06:50:52;;;;;;;2.17;0.50;;;;;;;;;;4200822;28;20051;-34
2022/03/30 06:52:53;;;;;;;2.63;0.70;;;;;;;;;;4196398;28;20059;-34
2022/03/30 06:54:54;;;;;;;3.10;0.50;;;;;;;;;;4198752;28;20106;-33
2022/03/30 06:56:56;;;;;;;1.83;0.40;;;;;;;;;;4187904;28;20067;-33
2022/03/30 06:58:57;;;;;;;1.73;0.50;;;;;;;;;;4195070;28;20464;-34
2022/03/30 07:00:59;;;;;;;2.78;0.28;;;;;;;;;;4194980;28;20056;-34
2022/03/30 07:03:00;;;;;;;1.73;0.40;;;;;;;;;;4197284;28;20052;-34
2022/03/30 07:05:02;;;;;;;3.03;0.60;;;;;;;;;;4196957;28;20045;-34
2022/03/30 07:11:42;;;;;;;1.55;0.35;;;;;;;;;;4200075;28;20068;-34
2022/03/30 07:13:43;;;;;;;3.35;0.45;;;;;;;;;;4193591;28;20072;-34
2022/03/30 07:15:45;;;;;;;1.27;0.30;;;;;;;;;;4194157;28;20505;-34
2022/03/30 07:17:47;;;;;;;1.33;0.50;;;;;;;;;;4195414;28;20097;-34
2022/03/30 07:19:48;;;;;;;0.55;0.40;;;;;;;;;;4197794;28;20056;-34
2022/03/30 07:21:49;;;;;;;2.60;0.47;;;;;;;;;;4197846;28;20049;-34
2022/03/30 07:23:50;;;;;;;2.88;0.35;;;;;;;;;;4196446;28;20155;-34
2022/03/30 07:25:51;;;;;;;2.00;0.40;;;;;;;;;;4192912;28;20093;-34
2022/03/30 07:27:54;;;;;;;2.72;0.35;;;;;;;;;;4193902;28;20089;-34
2022/03/30 07:29:55;;;;;;;2.83;0.38;;;;;;;;;;4187935;28;20044;-34
2022/03/30 07:31:56;;;;;;;4.38;0.40;;;;;;;;;;4185542;28;20194;-34
2022/03/30 07:33:58;;;;;;;1.73;0.43;;;;;;;;;;4191109;28;20103;-34
2022/03/30 07:35:59;;;;;;;1.20;0.40;;;;;;;;;;4191981;28;20051;-34
2022/03/30 07:38:00;;;;;;;1.83;0.30;;;;;;;;;;4194648;28;20055;-34
2022/03/30 07:40:03;;;;;;;1.98;0.50;;;;;;;;;;4189552;28;20052;-34
2022/03/30 07:42:04;;;;;;;1.80;0.43;;;;;;;;;;4189399;28;20052;-34
2022/03/30 07:44:05;;;;;;;3.90;0.40;;;;;;;;;;4192545;28;20989;-34
2022/03/30 07:46:08;;;;;;;1.55;0.32;;;;;;;;;;4191919;28;20093;-34
2022/03/30 07:48:09;;;;;;;3.42;0.40;;;;;;;;;;4195646;28;20509;-34
2022/03/30 07:50:11;;;;;;;2.60;0.38;;;;;;;;;;4197357;28;20177;-34
2022/03/30 07:52:12;;;;;;;2.10;0.45;;;;;;;;;;4196349;28;20101;-34
2022/03/30 07:54:13;;;;;;;1.52;0.50;;;;;;;;;;4188784;28;20056;-34
2022/03/30 07:56:14;;;;;;;0.98;0.50;;;;;;;;;;4193737;28;20487;-34
2022/03/30 07:58:15;;;;;;;0.50;0.20;;;;;;;;;;4191631;28;20583;-34
2022/03/30 08:00:17;;;;;;;2.03;0.40;;;;;;;;;;4199829;28;20044;-38
2022/03/30 08:02:18;;;;;;;1.17;0.20;;;;;;;;;;4192205;28;20048;-34
2022/03/30 08:04:20;;;;;;;2.03;0.28;;;;;;;;;;4199949;28;20048;-34
2022/03/30 08:06:21;;;;;;;1.38;0.68;;;;;;;;;;4196788;28;20093;-34
2022/03/30 08:08:22;;;;;;;4.20;0.40;;;;;;;;;;4198667;28;21025;-34
2022/03/30 08:10:24;;;;;;;2.90;0.20;;;;;;;;;;4195914;28;21049;-34
2022/03/30 08:12:25;;;;;;;1.20;0.13;;;;;;;;;;4197009;28;20064;-34
2022/03/30 08:14:25;;;;;;;2.10;0.30;;;;;;;;;;4194414;28;20611;-34
2022/03/30 08:16:27;;;;;;;1.67;0.35;;;;;;;;;;4191995;28;20102;-34
2022/03/30 08:18:29;;;;;;;1.58;0.20;;;;;;;;;;4196891;28;20415;-37
2022/03/30 08:22:50;;;;;;;3.47;0.32;;;;;;;;;;4190399;28;20112;-35
2022/03/30 08:25:12;;;;;;;2.38;0.30;;;;;;;;;;4193384;28;20120;-35
2022/03/30 08:27:16;;;;;;;2.55;0.20;;;;;;;;;;4198351;28;20055;-34
2022/03/30 08:29:17;;;;;;;1.00;0.30;;;;;;;;;;4195138;28;20062;-35
2022/03/30 08:31:18;;;;;;;1.80;0.32;;;;;;;;;;4191803;28;20057;-35
2022/03/30 08:33:23;;;;;;;2.72;0.30;;;;;;;;;;4194137;28;20581;-35
2022/03/30 08:35:25;;;;;;;1.92;0.50;;;;;;;;;;4196285;28;20044;-35
2022/03/30 08:37:26;;;;;;;1.33;0.60;;;;;;;;;;4193982;28;20117;-35
2022/03/30 08:39:27;;;;;;;1.38;0.32;;;;;;;;;;4192313;28;20097;-35
2022/03/30 08:41:29;;;;;;;1.27;0.40;;;;;;;;;;4193816;28;20052;-35
2022/03/30 08:43:31;;;;;;;1.05;0.45;;;;;;;;;;4193068;28;20055;-34
2022/03/30 08:45:33;;;;;;;0.70;0.30;;;;;;;;;;4195827;28;20047;-35
2022/03/30 08:47:34;;;;;;;4.88;0.55;;;;;;;;;;4179741;28;20059;-36
2022/03/30 08:49:37;;;;;;;1.20;0.20;;;;;;;;;;4196605;28;20496;-35
2022/03/30 08:51:39;;;;;;;2.05;0.40;;;;;;;;;;4195023;28;20087;-35
2022/03/30 08:53:40;;;;;;;2.97;0.40;;;;;;;;;;4192129;28;20048;-35
2022/03/30 08:55:41;;;;;;;1.33;0.30;;;;;;;;;;4197567;28;20043;-35
2022/03/30 08:57:42;;;;;;;2.88;0.40;;;;;;;;;;4193515;28;20583;-35
2022/03/30 09:00:18;;;;;;;1.30;0.40;;;;;;;;;;4194740;28;20165;-35
2022/03/30 09:02:20;;;;;;;2.63;0.50;;;;;;;;;;4191605;28;20048;-34
2022/03/30 09:04:21;;;;;;;1.02;0.30;;;;;;;;;;4185204;28;20552;-35
2022/03/30 09:06:30;;;;;;;0.73;0.20;;;;;;;;;;4191691;28;20089;-35
2022/03/30 09:08:30;;;;;;;1.08;0.20;;;;;;;;;;4193802;28;20044;-34
2022/03/30 09:10:31;;;;;;;0.65;0.35;;;;;;;;;;4193749;28;20439;-35
2022/03/30 09:12:33;;;;;;;0.60;0.17;;;;;;;;;;4197486;28;20051;-35
2022/03/30 09:14:35;;;;;;;2.00;0.35;;;;;;;;;;4199847;28;20055;-36
2022/03/30 09:16:44;;;;;;;2.78;0.30;;;;;;;;;;4194011;28;20461;-35
2022/03/30 09:19:07;;;;;;;0.93;0.30;;;;;;;;;;4194037;28;20143;-35
2022/03/30 09:21:08;;;;;;;2.38;0.28;;;;;;;;;;4197725;28;20052;-35
2022/03/30 09:23:10;;;;;;;0.30;0.20;;;;;;;;;;4198106;28;20093;-35
2022/03/30 09:25:12;;;;;;;0.25;0.20;;;;;;;;;;4196766;28;20514;-34
2022/03/30 09:27:13;;;;;;;0.80;0.20;;;;;;;;;;4201718;28;20044;-36
2022/03/30 09:29:14;;;;;;;0.82;0.28;;;;;;;;;;4182347;28;20404;-34
2022/03/30 09:31:16;;;;;;;0.20;0.10;;;;;;;;;;4197090;28;20093;-34
2022/03/30 09:33:17;;;;;;;0.60;0.20;;;;;;;;;;4187348;28;20060;-35
2022/03/30 09:35:25;;;;;;;0.80;0.10;;;;;;;;;;4197268;28;20070;-35
2022/03/30 09:37:26;;;;;;;0.88;0.28;;;;;;;;;;4196261;28;20511;-35
2022/03/30 09:39:32;;;;;;;1.15;0.25;;;;;;;;;;4201193;28;20048;-35
2022/03/30 09:41:46;;;;;;;1.20;0.45;;;;;;;;;;4200810;28;20058;-37
2022/03/30 09:43:47;;;;;;;4.28;0.38;;;;;;;;;;4193075;28;20176;-36
2022/03/30 09:45:49;;;;;;;2.15;0.30;;;;;;;;;;4196043;28;20495;-35
2022/03/30 09:47:53;;;;;;;1.73;0.30;;;;;;;;;;4191649;28;20485;-35
2022/03/30 09:49:54;;;;;;;0.50;0.30;;;;;;;;;;4199352;28;20070;-36
2022/03/30 09:51:55;;;;;;;2.08;0.22;;;;;;;;;;4189356;28;20048;-36
2022/03/30 09:53:56;;;;;;;0.55;0.38;;;;;;;;;;4199326;28;20134;-36
2022/03/30 09:56:01;;;;;;;1.05;0.20;;;;;;;;;;4196488;28;20052;-36
2022/03/30 09:58:06;;;;;;;0.40;0.25;;;;;;;;;;4196663;28;20055;-36
2022/03/30 10:00:12;;;;;;;0.73;0.30;;;;;;;;;;4194627;28;21387;-35
2022/03/30 10:02:13;;;;;;;0.82;0.20;;;;;;;;;;4200102;28;20048;-36
2022/03/30 10:04:14;;;;;;;1.35;0.20;;;;;;;;;;4200483;28;20647;-41
2022/03/30 10:06:16;;;;;;;0.45;0.20;;;;;;;;;;4198627;28;20052;-37
2022/03/30 10:08:18;;;;;;;0.75;0.43;;;;;;;;;;4199212;28;20142;-36
2022/03/30 10:10:21;;;;;;;0.60;0.20;;;;;;;;;;4195010;28;20074;-36
2022/03/30 10:12:23;;;;;;;0.60;0.20;;;;;;;;;;4192999;28;20061;-35
2022/03/30 10:14:24;;;;;;;0.47;0.28;;;;;;;;;;4190790;28;20136;-36
2022/03/30 10:16:27;;;;;;;0.30;0.22;;;;;;;;;;4195680;28;20477;-35
2022/03/30 10:18:29;;;;;;;1.73;0.30;;;;;;;;;;4200887;28;20052;-36
2022/03/30 10:20:31;;;;;;;0.43;0.20;;;;;;;;;;4197275;28;20074;-37
2022/03/30 10:22:38;;;;;;;0.90;0.10;;;;;;;;;;4198579;28;20056;-37
2022/03/30 10:24:44;;;;;;;0.40;0.10;;;;;;;;;;4196134;28;20056;-39
2022/03/30 10:26:45;;;;;;;0.52;0.10;;;;;;;;;;4199190;28;20060;-37
2022/03/30 10:28:51;;;;;;;0.20;0.10;;;;;;;;;;4202921;28;20048;-34
2022/03/30 10:30:53;;;;;;;0.47;0.25;;;;;;;;;;4194905;28;20059;-35
2022/03/30 10:33:02;;;;;;;0.43;0.20;;;;;;;;;;4188460;28;20532;-35
2022/03/30 10:35:06;;;;;;;0.45;0.25;;;;;;;;;;4197933;28;20078;-34
2022/03/30 10:37:09;;;;;;;2.58;0.40;;;;;;;;;;4198280;28;20048;-37
2022/03/30 10:39:14;;;;;;;1.35;0.20;;;;;;;;;;4195900;28;20133;-35
2022/03/30 10:41:15;;;;;;;1.05;0.30;;;;;;;;;;4195582;28;20052;-34
2022/03/30 10:43:25;;;;;;;0.50;0.30;;;;;;;;;;4198757;28;20059;-34
2022/03/30 10:45:26;;;;;;;0.43;0.25;;;;;;;;;;4195081;28;20499;-34
2022/03/30 10:47:29;;;;;;;0.40;0.25;;;;;;;;;;4202351;28;20449;-36
2022/03/30 10:49:40;;;;;;;0.30;0.13;;;;;;;;;;4200185;28;20035;-37
2022/03/30 10:51:43;;;;;;;0.52;0.10;;;;;;;;;;4195188;28;20059;-36
2022/03/30 10:53:46;;;;;;;0.73;0.20;;;;;;;;;;4191775;28;20753;-36
2022/03/30 10:55:47;;;;;;;2.25;0.40;;;;;;;;;;4194202;28;20040;-36
2022/03/30 10:57:57;;;;;;;0.68;0.35;;;;;;;;;;4195280;28;20105;-35
2022/03/30 11:00:08;;;;;;;0.45;0.20;;;;;;;;;;4199153;28;20051;-38
2022/03/30 11:02:13;;;;;;;0.47;0.20;;;;;;;;;;4197934;28;20052;-37
2022/03/30 11:04:18;;;;;;;1.17;0.22;;;;;;;;;;4195701;28;20048;-37
2022/03/30 11:06:19;;;;;;;0.30;0.20;;;;;;;;;;4194902;28;20055;-36
2022/03/30 11:08:32;;;;;;;0.20;0.10;;;;;;;;;;4196731;28;20075;-36
2022/03/30 11:10:45;;;;;;;1.88;0.20;;;;;;;;;;4194907;28;20048;-36
2022/03/30 11:13:05;;;;;;;0.20;0.15;;;;;;;;;;4199597;28;20050;-35
2022/03/30 11:15:08;;;;;;;2.50;0.13;;;;;;;;;;4197908;28;20055;-36
2022/03/30 11:17:14;;;;;;;0.55;0.20;;;;;;;;;;4197267;28;20087;-36
2022/03/30 11:19:15;;;;;;;0.10;0.10;;;;;;;;;;4195457;28;20044;-35
2022/03/30 11:21:19;;;;;;;0.52;0.17;;;;;;;;;;4195577;28;20104;-36
2022/03/30 11:23:21;;;;;;;0.98;0.50;;;;;;;;;;4199403;28;20048;-37
2022/03/30 11:25:23;;;;;;;0.32;0.20;;;;;;;;;;4201429;28;20097;-35
2022/03/30 11:27:24;;;;;;;0.73;0.13;;;;;;;;;;4202789;28;20044;-35
2022/03/30 11:29:41;;;;;;;0.68;0.20;;;;;;;;;;4189874;28;20048;-34
2022/03/30 11:31:42;;;;;;;1.05;0.15;;;;;;;;;;4204153;28;20503;-36
2022/03/30 11:33:43;;;;;;;1.05;0.35;;;;;;;;;;4202218;28;20044;-36
2022/03/30 11:35:46;;;;;;;0.22;0.10;;;;;;;;;;4187151;28;20047;-35
2022/03/30 11:37:58;;;;;;;1.83;0.20;;;;;;;;;;4191887;28;20270;-35
2022/03/30 11:40:19;;;;;;;0.80;0.20;;;;;;;;;;4197269;28;20051;-35
2022/03/30 11:42:20;;;;;;;0.40;0.17;;;;;;;;;;4198026;28;20052;-36
2022/03/30 11:46:43;;;;;;;0.40;0.10;;;;;;;;;;4198257;28;20102;-34
2022/03/30 11:48:44;;;;;;;0.10;0.10;;;;;;;;;;4196405;28;21518;-35
2022/03/30 11:50:49;;;;;;;0.47;0.10;;;;;;;;;;4199486;28;20139;-35
2022/03/30 11:52:52;;;;;;;1.17;0.10;;;;;;;;;;4195779;28;20493;-36
2022/03/30 11:54:54;;;;;;;0.60;0.10;;;;;;;;;;4198261;28;20435;-36
2022/03/30 11:56:55;;;;;;;0.40;0.10;;;;;;;;;;4191859;28;20047;-36
2022/03/30 11:58:56;;;;;;;1.63;0.25;;;;;;;;;;4200682;28;20120;-37
2022/03/30 12:00:58;;;;;;;1.73;0.10;;;;;;;;;;4199969;28;20286;-36
2022/03/30 12:03:02;;;;;;;0.82;0.32;;;;;;;;;;4198224;28;20118;-36
2022/03/30 12:05:03;;;;;;;1.95;0.10;;;;;;;;;;4197568;28;20063;-36
2022/03/30 12:07:04;;;;;;;1.02;0.17;;;;;;;;;;4199657;28;20049;-36
2022/03/30 12:09:07;;;;;;;2.05;0.20;;;;;;;;;;4200236;28;20135;-36
2022/03/30 12:11:08;;;;;;;0.03;0.03;;;;;;;;;;4185769;28;20087;-37
2022/03/30 12:13:09;;;;;;;0.13;0.10;;;;;;;;;;4196585;28;20443;-36
2022/03/30 12:15:17;;;;;;;1.33;0.13;;;;;;;;;;4195749;28;20773;-37
2022/03/30 12:17:25;;;;;;;0.85;0.20;;;;;;;;;;4194161;28;20668;-37
2022/03/30 12:19:26;;;;;;;2.13;0.52;;;;;;;;;;4196333;28;20052;-36
2022/03/30 12:21:32;;;;;;;0.22;0.22;;;;;;;;;;4198007;28;20093;-38
2022/03/30 12:23:33;;;;;;;0.45;0.20;;;;;;;;;;4192463;28;20126;-37
2022/03/30 12:25:37;;;;;;;0.77;0.20;;;;;;;;;;4196804;28;20101;-37